Etusivu
METAR-TAF:

METAR-TAF

Lentoasemat :

Newport, Vermont, Yhdysvallat

Leveyspiiri: 44-53-20N, Pituuspiiri: 072-13-45W, korkeus merenpinnasta: 283 m

Tämänhetkinen sää

Tämä raportti tehtiin 22 minuuttia sitten, kello 13.15 UTC
tyyntä
Lämpötila 12°C
Kosteus 76%
Ilmanpaine 1007 hPa
Näkyvyys: 16.1 km
selkeää

METAR: KEFK 111315Z AUTO 00000KT 10SM CLR 12/08 A2973 RMK AO2 T01180076

Aika: 09:37 (13:37 UTC)


TAF: puuttuu

Säähavainnot ja -ennusteet yli 4000 lentoasemalta (METAR- ja TAF-raportit).

Käytössä olevat sääasemat on merkitty karttaan keltaisilla ja punaisilla pisteillä.

Aseta hiiri pisteen päälle nähdäksesi sääaseman nimen.

Klikkaa sitten nähdäksesi säähavainnot ja -ennusteet.

Kartan vaihtaminen: klikkaa mustalla rastilla varustettuja vihreitä pisteitä, niin voit zoomata sisään; viivalla varustettua vihreää pistettä, niin voit zoomata ulos tai vihreitä nuolia, niin pääset viereisille kartoille.


METAR-TAF: